Orwell, OH (44076)

8:53 AM EDT on August 28, 2015 (GMT -0400)
Rome | | Change Station
CLOSE
Current Station
Personal Weather Station
Location: Rome, OH
Elevation: 801 ft
Nearby Weather Stations

Elev 801 ft 41.60 °N, 80.89 °W | Updated 1 minute ago

Partly Cloudy
Partly Cloudy
54.3 °F
Feels Like 54.3 °F
N
0.0
Wind Variable Wind from North
Gusts 0.0 mph

Today
High -- | Low -- °F
--% Chance of Precip.
Yesterday
High -- | Low -- °F
Precip. -- in
6:44 AM 8:03 PM
Waxing Gibbous, 98% visible
Pressure 30.25 in
Visibility 6.0 miles
Clouds Few 200 ft
Dew Point 54 °F
Humidity 98%
Rainfall 0.00 in
Snow Depth Not available.
UV 1 out of 12
Pollen 9.80 out of 12
Air Quality Not available.
Flu Activity Not available.
SPECI KHZY 281216Z AUTO 00000KT 6SM BR FEW002 12/11 A3025 RMK AO2 T01170111
Pressure 30.25 in
Visibility 6.0 miles
Clouds Few 200 ft
Dew Point 54 °F
Humidity 98%
Rainfall 0.00 in
Snow Depth Not available.
UV 1 out of 12
Pollen 9.80 out of 12
Air Quality Not available.
Flu Activity Not available.
SPECI KHZY 281216Z AUTO 00000KT 6SM BR FEW002 12/11 A3025 RMK AO2 T01170111

10-Day Weather Forecast

×

Almanac

Astronomy

Aug. 28, 2015 Rise Set
Actual Time
Civil Twilight
Nautical Twilight
Astronomical Twilight
Moon
Length of Visible Light
Length of Day
Tomorrow will be .
, % of the Moon is Illuminated

Today's Extremes

State Highs State Lows

Community

WunderPhotos

Upload Photos

1,850,373 photos uploaded!

WunderBlogs® & News

Nearby

Air Quality

  Air Quality AQ Index Pollutant
Not available.

Snow Depth

Station Depth Elevation

Earthquake Activity

City Distance Mag. Time & Date
Minimum magnitude displayed is 2.5.

Coastal Water Temperatures

Place Temperature

Stations

Nearby Weather Stations

Station Location Temp. Windchill Dew Point Humidity Wind Precip. Elev Updated Type